• Join FlightAware (Why Join?)
  • Login
  • US Flag GB Flag 
03:55 EDT


 

Airport Tracker/Info


-or-


 

Live Flight TrackerFlight Track Log ✈ FSR411 ✈ 09-Oct-2013 ✈ KFLL - KCMI

Flight Track Log - Related Links

Times and Time Zones

All times are in EDT time to prevent confusion due to time zone crossing. See the FSR411 flight status page for this flight to view local times or setup timezone preferences in your user account.

Time Position Orientation Groundspeed Altitude Reporting Facility
EDT Latitude Longitude Course Direction KTS MPH feet Rate Location/Type
07:48 26.0742 -80.1736 261° West 183 211 600  Level Miami Center
07:48 26.0717 -80.1922 261° West 184 212 1,200 2,340 Climbing Miami Center
07:50 26.0864 -80.2711 282° West 259 298 4,200 2,700 Climbing Miami Center
07:51 26.1372 -80.3375 310° West 275 316 7,200 2,640 Climbing Miami Center
07:51 26.1594 -80.3658 311° West 301 346 8,400 1,680 Climbing Miami Center
07:52 26.2078 -80.4367 307° West 301 346 9,900 2,160 Climbing Miami Center
07:53 26.2664 -80.5219 307° West 309 356 12,800 3,000 Climbing Miami Center
07:54 26.3267 -80.6117 307° West 348 400 15,900 3,480 Climbing Miami Center
07:55 26.4039 -80.6908 317° Northwest 369 425 19,800 3,240 Climbing Miami Center
07:56 26.4897 -80.7608 324° Northwest 378 435 22,400 2,040 Climbing Miami Center
07:57 26.5736 -80.8308 323° Northwest 402 463 23,900 1,800 Climbing Miami Center
07:58 26.6797 -80.9206 323° Northwest 432 497 26,100 1,980 Climbing Miami Center
07:59 26.7797 -81.0053 323° Northwest 448 516 27,900 1,560 Climbing Miami Center
08:00 26.8797 -81.0858 324° Northwest 448 516 29,300 1,320 Climbing Miami Center
08:01 26.9756 -81.1639 324° Northwest 459 528 30,600 1,380 Climbing Miami Center
08:02 27.0894 -81.2589 323° Northwest 466 536 32,100 1,500 Climbing Miami Center
08:03 27.1911 -81.3444 323° Northwest 466 536 33,600 1,260 Climbing Miami Center
08:04 27.2808 -81.4206 323° Northwest 466 536 34,700 1,200 Climbing Miami Center
08:05 27.3944 -81.5161 323° Northwest 466 536 36,100 1,320 Climbing Miami Center
08:06 27.4861 -81.5922 324° Northwest 466 536 37,400 1,200 Climbing Miami Center
08:07 27.5856 -81.6761 323° Northwest 459 528 38,600 900 Climbing Miami Center
08:09 27.7658 -81.8186 325° Northwest 416 479 40,000 480 Climbing Jacksonville Center
08:10 27.8667 -81.9067 322° Northwest 433 498 40,000  Level Jacksonville Center
08:11 27.9797 -81.9761 332° Northwest 449 517 40,000  Level Jacksonville Center
08:12 28.0969 -82.0292 338° Northwest 449 517 40,000  Level Jacksonville Center
08:13 28.2142 -82.0822 338° Northwest 454 522 40,000  Level Jacksonville Center
08:14 28.3356 -82.1356 339° North 460 529 40,000  Level Jacksonville Center
08:15 28.4506 -82.1867 339° North 455 524 40,000  Level Jacksonville Center
08:16 28.5678 -82.2425 337° Northwest 455 524 40,000  Level Jacksonville Center
08:17 28.6869 -82.2961 338° Northwest 455 524 40,000  Level Jacksonville Center
08:18 28.7789 -82.3406 337° Northwest 455 524 40,000  Level Jacksonville Center
08:19 28.8939 -82.3922 339° North 449 517 40,000  Level Jacksonville Center
08:20 29.0361 -82.4556 339° North 455 524 40,000  Level Jacksonville Center
08:21 29.1511 -82.5097 338° Northwest 455 524 40,000  Level Jacksonville Center
08:22 29.2703 -82.5642 338° Northwest 455 524 40,000  Level Jacksonville Center
08:23 29.3872 -82.6183 338° Northwest 455 524 40,000  Level Jacksonville Center
08:24 29.5022 -82.6778 336° Northwest 455 524 40,000  Level Jacksonville Center
08:25 29.6192 -82.7325 338° Northwest 460 529 40,000  Level Jacksonville Center
08:26 29.7342 -82.7850 338° Northwest 455 524 40,000  Level Jacksonville Center
08:27 29.8511 -82.8375 339° North 450 518 40,000  Level Jacksonville Center
08:28 29.9658 -82.8925 337° Northwest 450 518 40,100 360 Climbing Jacksonville Center
08:29 30.0828 -82.9431 339° North 450 518 40,800 720 Climbing Jacksonville Center
08:30 30.1975 -82.9983 337° Northwest 450 518 41,600 780 Climbing Jacksonville Center
08:31 30.3122 -83.0514 338° Northwest 450 518 42,400 600 Climbing Jacksonville Center
08:32 30.4250 -83.1069 337° Northwest 445 512 42,900 300 Climbing Jacksonville Center
08:33 30.5397 -83.1603 338° Northwest 445 512 43,000  Climbing Jacksonville Center
08:34 30.6503 -83.2136 337° Northwest 439 505 43,000  Level Jacksonville Center
08:35 30.7650 -83.2672 338° Northwest 439 505 43,000  Level Jacksonville Center
08:36 30.8733 -83.3233 336° Northwest 439 505 43,000  Level Jacksonville Center
08:37 30.9858 -83.3772 338° Northwest 432 497 43,000  Level Jacksonville Center
08:39 31.1839 -83.4733 337° Northwest 495 570 43,000  Level Atlanta Center
08:40 31.2989 -83.5286 338° Northwest 466 536 43,000  Level Atlanta Center
08:41 31.4119 -83.5814 338° Northwest 443 510 43,000  Level Atlanta Center
08:42 31.5247 -83.6369 337° Northwest 438 504 43,000  Level Atlanta Center
08:43 31.6189 -83.6828 337° Northwest 438 504 43,000  Level Atlanta Center
08:44 31.7567 -83.7506 337° Northwest 444 511 43,000  Level Atlanta Center
08:45 31.8778 -83.8089 338° Northwest 451 519 43,000  Level Atlanta Center
08:46 31.9906 -83.8650 337° Northwest 451 519 43,000  Level Atlanta Center
08:47 32.1033 -83.9211 337° Northwest 451 519 43,000  Level Atlanta Center
08:48 32.2183 -83.9775 337° Northwest 446 513 43,000  Level Atlanta Center
08:49 32.3331 -84.0339 337° Northwest 446 513 43,000  Level Atlanta Center
08:50 32.4500 -84.0931 337° Northwest 441 507 43,000  Level Atlanta Center
08:51 32.5628 -84.1497 337° Northwest 441 507 43,000  Level Atlanta Center
08:52 32.6775 -84.2042 338° Northwest 441 507 43,000  Level Atlanta Center
08:53 32.7942 -84.2636 337° Northwest 441 507 43,000  Level Atlanta Center
08:54 32.9089 -84.3258 336° Northwest 448 516 43,000  Level Atlanta Center
08:55 33.0236 -84.3856 336° Northwest 448 516 43,000  Level Atlanta Center
08:56 33.1278 -84.4356 338° Northwest 448 516 43,000  Level Atlanta Center
08:57 33.2444 -84.4958 337° Northwest 448 516 43,000  Level Atlanta Center
08:58 33.3592 -84.5511 338° Northwest 448 516 43,000  Level Atlanta Center
08:59 33.4778 -84.6142 336° Northwest 453 521 43,000  Level Atlanta Center
09:00 33.6028 -84.6747 338° Northwest 453 521 43,000  Level Atlanta Center
09:01 33.7172 -84.7306 338° Northwest 453 521 43,000  Level Atlanta Center
09:02 33.8317 -84.7967 334° Northwest 447 514 43,000  Level Atlanta Center
09:03 33.9522 -84.8578 337° Northwest 447 514 43,000  Level Atlanta Center
09:04 34.0667 -84.9139 338° Northwest 452 520 43,000  Level Atlanta Center
09:05 34.1811 -84.9703 338° Northwest 452 520 43,000  Level Atlanta Center
09:06 34.2828 -85.0242 336° Northwest 452 520 43,000  Level Atlanta Center
09:07 34.3972 -85.0836 337° Northwest 452 520 43,000  Level Atlanta Center
09:08 34.5136 -85.1431 337° Northwest 452 520 43,000  Level Atlanta Center
09:09 34.6339 -85.2078 336° Northwest 441 507 43,000  Level Atlanta Center
09:10 34.7481 -85.2700 336° Northwest 441 507 43,000  Level Atlanta Center
09:11 34.8644 -85.3297 337° Northwest 441 507 43,000  Level Atlanta Center
09:12 34.9786 -85.3925 336° Northwest 441 507 43,000  Level Atlanta Center
09:13 35.0781 -85.4447 337° Northwest 441 507 43,000  Level Atlanta Center
09:14 35.1942 -85.5053 337° Northwest 441 507 43,000  Level Atlanta Center
09:14 35.2772 -85.5500 336° Northwest 441 507 43,000  Level Memphis Center
09:15 35.3792 -85.6028 337° Northwest 448 516 43,000  Level Memphis Center
09:16 35.4944 -85.6675 335° Northwest 448 516 43,000  Level Memphis Center
09:17 35.6092 -85.7275 337° Northwest 448 516 43,000  Level Memphis Center
09:18 35.7242 -85.7900 336° Northwest 448 516 43,000  Level Memphis Center
09:19 35.8411 -85.8528 336° Northwest 448 516 43,000  Level Memphis Center
09:20 35.9558 -85.9131 337° Northwest 448 516 43,000  Level Memphis Center
09:21 36.0836 -85.9831 336° Northwest 448 516 43,000  Level Memphis Center
09:22 36.2003 -86.0464 336° Northwest 448 516 43,000  Level Memphis Center
09:23 36.3150 -86.1072 337° Northwest 448 516 43,000  Level Memphis Center
09:24 36.4297 -86.1733 335° Northwest 448 516 43,000  Level Memphis Center
09:25 36.5467 -86.2372 336° Northwest 448 516 43,000  Level Memphis Center
09:26 36.6633 -86.3011 336° Northwest 448 516 43,000  Level Memphis Center
09:27 36.7758 -86.3653 335° Northwest 448 516 43,000  Level Memphis Center
09:28 36.8906 -86.4297 336° Northwest 448 516 43,000  Level Memphis Center
09:29 37.0031 -86.4942 335° Northwest 448 516 43,000  Level Memphis Center
09:30 37.1331 -86.5636 337° Northwest 445 512 43,000  Level Indianapolis Center
09:31 37.2467 -86.6286 336° Northwest 444 511 43,000  Level Indianapolis Center
09:32 37.3608 -86.6908 337° Northwest 444 511 43,000 -60 Level Indianapolis Center
09:33 37.4742 -86.7564 335° Northwest 444 511 42,900 -780 Descending Indianapolis Center
09:35 37.5836 -86.8192 336° Northwest 447 514 41,400 -2,040 Descending Indianapolis Center
09:36 37.7283 -86.8622 347° North 443 510 38,800 -2,280 Descending Indianapolis Center
09:37 37.8525 -86.9031 345° North 454 522 36,700 -2,040 Descending Indianapolis Center
09:38 37.9708 -86.9581 340° North 450 518 34,600 -2,040 Descending Indianapolis Center
09:39 38.0864 -87.0322 333° Northwest 459 528 32,500 -2,100 Descending Indianapolis Center
09:40 38.2028 -87.1047 334° Northwest 458 527 30,300 -2,040 Descending Indianapolis Center
09:41 38.3147 -87.1728 335° Northwest 460 529 28,300 -2,100 Descending Indianapolis Center
09:42 38.4486 -87.2572 334° Northwest 478 550 26,000 -2,040 Descending Indianapolis Center
09:43 38.5683 -87.3317 334° Northwest 477 549 24,200 -1,020 Descending Indianapolis Center
09:44 38.6869 -87.4069 334° Northwest 472 543 24,000 -540 Descending Indianapolis Center
09:45 38.8022 -87.4789 334° Northwest 462 532 23,100 -1,560 Descending Indianapolis Center
09:46 38.9133 -87.5500 334° Northwest 447 514 20,800 -2,520 Descending Indianapolis Center
09:47 39.0447 -87.6325 334° Northwest 437 503 17,900 -2,460 Descending Indianapolis Center
09:48 39.1500 -87.6997 334° Northwest 424 488 15,800 -2,220 Descending Indianapolis Center
09:49 39.2519 -87.7661 333° Northwest 415 478 13,400 -2,220 Descending Indianapolis Center
09:50 39.3500 -87.8286 334° Northwest 398 458 11,300 -1,200 Descending Indianapolis Center
09:51 39.4494 -87.8928 334° Northwest 388 447 11,000 -180 Descending Indianapolis Center
09:52 39.5464 -87.9567 333° Northwest 389 448 11,000  Level Indianapolis Center
09:53 39.6436 -88.0200 333° Northwest 391 450 11,000 -600 Level Indianapolis Center
09:54 39.7064 -88.0969 317° Northwest 321 369 9,800 -1,620 Descending Indianapolis Center
09:55 39.7806 -88.1881 317° Northwest 307 353 7,700 -1,800 Descending Indianapolis Center
09:56 39.8394 -88.2597 317° Northwest 299 344 6,200 -1,680 Descending Indianapolis Center
09:57 39.8997 -88.3272 319° Northwest 285 328 4,200 -1,140 Descending Chicago Center
09:58 39.9750 -88.3597 342° North 285 328 3,800 -780 Descending Chicago Center
09:59 40.0486 -88.3656 357° North 247 284 2,700 -1,020 Descending Chicago Center
10:00 40.0767 -88.3194 52° Northeast 203 234 1,700 -840 Descending Chicago Center
10:01 40.0481 -88.2858 138° Southeast 166 191 1,000 -720 Descending Chicago Center
10:03 40.0388 -88.2778 131° Southeast  Level Estimated